Time;durP1;ratioP1;P1;durP2;ratioP2;P2;SDS_P1;SDS_P2;PMS_P1;PMS_P2;Temp;Humidity;BMP_temperature;BMP_pressure;BME280_temperature;BME280_humidity;BME280_pressure;Samples;Min_cycle;Max_cycle;Signal;HPM_P1;HPM_P2
2021/11/28 00:02:22;;;;;;;;;2.00;1.00;;;;;5.06;100.00;98968.72;4978283;28;48534;-84
2021/11/28 00:04:52;;;;;;;;;1.00;1.00;;;;;5.18;100.00;98979.94;4997027;28;46074;-81
2021/11/28 00:13:02;;;;;;;;;0.25;0.25;;;;;5.44;100.00;99045.50;4935308;28;45579;-83
2021/11/28 00:15:28;;;;;;;;;1.00;0.00;;;;;5.19;100.00;98991.97;4934815;28;46114;-82
2021/11/28 00:17:53;;;;;;;;;0.25;0.00;;;;;5.43;100.00;99042.06;4935100;28;45587;-87
2021/11/28 00:20:19;;;;;;;;;0.50;0.50;;;;;5.44;100.00;99043.72;4934704;28;45958;-81
2021/11/28 00:22:45;;;;;;;;;1.50;1.00;;;;;5.26;100.00;99011.34;4934569;28;46365;-84
2021/11/28 00:25:15;;;;;;;;;1.25;1.00;;;;;5.43;100.00;99028.25;4935581;28;45888;-84
2021/11/28 00:27:41;;;;;;;;;0.00;0.00;;;;;5.44;100.00;99035.09;4935722;28;45737;-84
2021/11/28 00:30:11;;;;;;;;;1.75;0.00;;;;;5.45;100.00;99044.56;4937975;28;45722;-84
2021/11/28 00:32:37;;;;;;;;;3.00;1.50;;;;;5.31;100.00;99011.81;4936542;28;45640;-86
2021/11/28 00:35:03;;;;;;;;;1.00;1.00;;;;;5.46;100.00;99060.00;4935482;28;46269;-82
2021/11/28 00:37:28;;;;;;;;;1.00;1.00;;;;;5.35;100.00;99021.03;4918618;28;45682;-85
2021/11/28 00:39:54;;;;;;;;;5.75;1.00;;;;;5.43;97.53;99038.63;4935814;28;45696;-85
2021/11/28 00:42:19;;;;;;;;;1.00;1.00;;;;;5.44;94.51;99025.53;4935877;28;45712;-84
2021/11/28 00:48:06;;;;;;;;;2.00;1.00;;;;;5.38;93.52;99020.81;4989681;28;45673;-85
2021/11/28 00:50:43;;;;;;;;;1.00;1.00;;;;;5.48;92.67;99039.13;4997980;28;45672;-84
2021/11/28 00:53:09;;;;;;;;;0.00;0.00;;;;;5.15;93.22;98984.53;4994582;28;46622;-84
2021/11/28 00:55:35;;;;;;;;;1.00;1.00;;;;;5.44;92.23;99051.50;4996348;28;45612;-82
2021/11/28 00:58:00;;;;;;;;;0.75;0.00;;;;;5.35;92.31;99025.38;4995167;28;45502;-82
2021/11/28 01:00:26;;;;;;;;;1.50;1.00;;;;;5.46;92.34;99065.19;4994816;28;45510;-84
2021/11/28 01:02:51;;;;;;;;;2.00;2.00;;;;;5.21;92.00;99007.44;4995098;28;46093;-82
2021/11/28 01:05:16;;;;;;;;;1.50;1.00;;;;;5.29;92.10;99031.06;4994728;28;46706;-82
2021/11/28 01:07:42;;;;;;;;;1.00;1.00;;;;;5.48;91.81;99071.09;4994817;28;45601;-80
2021/11/28 01:10:09;;;;;;;;;1.00;1.00;;;;;5.30;92.10;99033.53;4994623;28;45539;-81
2021/11/28 01:12:35;;;;;;;;;0.25;0.25;;;;;5.37;92.17;99026.94;4994471;28;45623;-83
2021/11/28 01:18:23;;;;;;;;;1.00;0.50;;;;;5.39;91.46;99056.22;4996100;28;45648;-81
2021/11/28 01:20:48;;;;;;;;;0.25;0.00;;;;;5.29;91.23;99047.44;4996926;28;45606;-82
2021/11/28 01:23:14;;;;;;;;;1.00;0.00;;;;;5.43;91.43;99059.41;4996269;28;47099;-80
2021/11/28 01:25:39;;;;;;;;;2.50;1.00;;;;;5.42;90.62;99043.00;4996719;28;45670;-81
2021/11/28 01:28:04;;;;;;;;;0.00;0.00;;;;;5.45;90.44;99093.91;4994246;28;45612;-82
2021/11/28 01:30:30;;;;;;;;;3.50;1.00;;;;;5.42;89.99;99074.16;4977387;28;45790;-80
2021/11/28 01:32:56;;;;;;;;;2.00;0.00;;;;;5.36;89.68;99066.81;5014166;28;45811;-82
2021/11/28 01:35:22;;;;;;;;;1.00;0.50;;;;;5.51;89.65;99103.00;5014407;28;46039;-80
2021/11/28 01:37:48;;;;;;;;;1.00;1.00;;;;;5.44;89.12;99092.22;5014188;28;45709;-80
2021/11/28 01:40:17;;;;;;;;;1.00;1.00;;;;;5.50;89.48;99073.59;5015263;28;45713;-81
2021/11/28 01:42:46;;;;;;;;;1.50;1.00;;;;;5.34;88.95;99067.91;5017657;28;45856;-83
2021/11/28 01:48:34;;;;;;;;;0.50;0.50;;;;;5.28;88.42;99076.13;5016935;28;45560;-82
2021/11/28 01:51:02;;;;;;;;;1.00;0.00;;;;;5.48;88.31;99093.66;5017799;28;45915;-83
2021/11/28 01:53:29;;;;;;;;;1.00;0.50;;;;;5.49;88.21;99101.34;5017347;28;45585;-80
2021/11/28 01:55:55;;;;;;;;;0.00;0.00;;;;;5.51;88.28;99124.56;5017421;28;45750;-79
2021/11/28 01:58:23;;;;;;;;;1.75;1.00;;;;;5.49;87.42;99095.31;5017337;28;45610;-80
2021/11/28 02:00:53;;;;;;;;;1.00;0.25;;;;;5.51;88.30;99108.19;5017426;28;45853;-80
2021/11/28 02:03:19;;;;;;;;;0.00;0.00;;;;;5.51;87.80;99108.19;5017469;28;45780;-82
2021/11/28 02:05:55;;;;;;;;;0.50;0.50;;;;;5.27;87.76;99090.06;5017891;28;46174;-82
2021/11/28 02:08:21;;;;;;;;;0.00;0.00;;;;;5.47;88.56;99105.81;5017147;28;45590;-82
2021/11/28 02:10:47;;;;;;;;;0.00;0.00;;;;;5.51;87.16;99134.97;5017297;28;45454;-80
2021/11/28 02:13:14;;;;;;;;;0.00;0.00;;;;;5.51;87.64;99114.19;5017539;28;46432;-82
2021/11/28 02:19:03;;;;;;;;;0.00;0.00;;;;;5.44;87.94;99129.41;5016964;28;45555;-83
2021/11/28 02:21:29;;;;;;;;;0.75;0.00;;;;;5.48;87.48;99123.06;5017096;28;45507;-82
2021/11/28 02:23:54;;;;;;;;;0.50;0.50;;;;;5.35;87.24;99085.09;4998785;28;46923;-84
2021/11/28 02:26:22;;;;;;;;;0.00;0.00;;;;;5.30;87.70;99088.03;5016754;28;45893;-80
2021/11/28 02:28:48;;;;;;;;;0.75;0.75;;;;;5.55;87.48;99145.97;5016590;28;45685;-84
2021/11/28 02:31:15;;;;;;;;;0.00;0.00;;;;;5.47;86.74;99167.31;5016689;28;45825;-83
2021/11/28 02:33:41;;;;;;;;;0.00;0.00;;;;;5.45;87.11;99125.06;5017143;28;45783;-80
2021/11/28 02:36:07;;;;;;;;;0.00;0.00;;;;;5.48;86.78;99124.81;5016855;28;46148;-79
2021/11/28 02:38:32;;;;;;;;;1.00;0.00;;;;;5.53;87.13;99130.50;5016613;28;45655;-80
2021/11/28 02:40:58;;;;;;;;;0.00;0.00;;;;;5.52;87.47;99141.00;5016732;28;45480;-80
2021/11/28 02:43:25;;;;;;;;;1.00;1.00;;;;;5.51;87.41;99137.56;5017025;28;45480;-81
2021/11/28 02:49:15;;;;;;;;;1.00;0.00;;;;;5.23;87.21;99093.81;5016739;28;46014;-85
2021/11/28 02:51:41;;;;;;;;;0.75;0.00;;;;;5.47;87.17;99151.72;5016846;28;45705;-79
2021/11/28 02:54:07;;;;;;;;;1.00;0.50;;;;;5.46;86.66;99148.28;5019795;28;46443;-82
2021/11/28 02:56:34;;;;;;;;;0.00;0.00;;;;;5.38;86.69;99122.09;5019608;28;46200;-83
2021/11/28 02:59:00;;;;;;;;;0.00;0.00;;;;;5.38;87.16;99134.22;5019226;28;45632;-80
2021/11/28 03:01:26;;;;;;;;;0.00;0.00;;;;;5.34;86.95;99119.81;4999255;28;45619;-82
2021/11/28 03:03:54;;;;;;;;;0.00;0.00;;;;;5.19;87.29;99119.16;4998596;28;47454;-80
2021/11/28 03:06:19;;;;;;;;;0.00;0.00;;;;;5.46;86.54;99165.66;5016675;28;46455;-82
2021/11/28 03:08:45;;;;;;;;;2.00;0.00;;;;;4.88;86.76;99047.91;5016432;28;45461;-80
2021/11/28 03:11:14;;;;;;;;;0.00;0.00;;;;;5.35;88.55;99150.03;5016818;28;45651;-79
2021/11/28 03:13:52;;;;;;;;;0.00;0.00;;;;;5.30;87.92;99118.38;4998390;28;46774;-82
2021/11/28 03:19:41;;;;;;;;;0.50;0.50;;;;;5.36;87.12;99141.28;5015922;28;45788;-81
2021/11/28 03:22:06;;;;;;;;;0.00;0.00;;;;;5.32;87.27;99151.09;5016069;28;45500;-81
2021/11/28 03:24:32;;;;;;;;;0.00;0.00;;;;;5.32;87.00;99140.69;5016397;28;45626;-79
2021/11/28 03:26:57;;;;;;;;;0.00;0.00;;;;;5.35;87.11;99156.03;5016159;28;46064;-84
2021/11/28 03:29:24;;;;;;;;;0.00;0.00;;;;;5.24;86.60;99135.22;5015810;28;45658;-83
2021/11/28 03:31:53;;;;;;;;;0.00;0.00;;;;;5.31;86.16;99166.75;5015895;28;45529;-82
2021/11/28 03:34:19;;;;;;;;;0.50;0.00;;;;;5.37;86.66;99159.38;5016079;28;45535;-81
2021/11/28 03:36:55;;;;;;;;;0.00;0.00;;;;;5.29;85.97;99172.06;5015644;28;46158;-82
2021/11/28 03:39:27;;;;;;;;;0.00;0.00;;;;;5.29;86.57;99148.69;5015873;28;45508;-81
2021/11/28 03:42:02;;;;;;;;;0.00;0.00;;;;;5.33;85.82;99150.16;5015900;28;46023;-83
2021/11/28 03:44:29;;;;;;;;;0.00;0.00;;;;;5.28;86.45;99136.69;5015800;28;45572;-83
2021/11/28 03:46:55;;;;;;;;;1.00;0.00;;;;;5.32;86.37;99168.44;5015901;28;46470;-83
2021/11/28 03:49:21;;;;;;;;;0.50;0.00;;;;;5.35;85.65;99152.63;5015756;28;45507;-83
2021/11/28 03:51:46;;;;;;;;;0.00;0.00;;;;;4.92;86.05;99105.59;5016061;28;45742;-83
2021/11/28 03:54:12;;;;;;;;;0.00;0.00;;;;;5.34;85.73;99159.59;5015879;28;46280;-82
2021/11/28 03:56:37;;;;;;;;;0.00;0.00;;;;;5.33;86.07;99163.13;4997836;28;47249;-83
2021/11/28 03:59:03;;;;;;;;;0.00;0.00;;;;;5.33;86.25;99162.31;5015743;28;45564;-83
2021/11/28 04:04:50;;;;;;;;;0.00;0.00;;;;;5.19;85.43;99149.47;5014342;28;45587;-84
2021/11/28 04:07:16;;;;;;;;;0.00;0.00;;;;;5.23;85.62;99159.56;4997868;28;46948;-81
2021/11/28 04:09:42;;;;;;;;;1.50;0.00;;;;;5.28;85.38;99154.03;5015525;28;45541;-82
2021/11/28 04:12:08;;;;;;;;;0.00;0.00;;;;;5.35;85.52;99186.38;5015975;28;45687;-84
2021/11/28 04:14:33;;;;;;;;;0.00;0.00;;;;;5.34;85.23;99187.34;5015434;28;45650;-83
2021/11/28 04:16:59;;;;;;;;;0.00;0.00;;;;;5.12;85.06;99143.09;5015224;28;45619;-83
2021/11/28 04:19:24;;;;;;;;;0.00;0.00;;;;;5.27;85.60;99180.91;5014991;28;45480;-81
2021/11/28 04:21:50;;;;;;;;;0.00;0.00;;;;;5.30;85.79;99170.31;5015389;28;45522;-81
2021/11/28 04:24:15;;;;;;;;;0.00;0.00;;;;;5.24;85.09;99168.13;4997055;28;48635;-84
2021/11/28 04:26:41;;;;;;;;;0.00;0.00;;;;;5.30;85.23;99167.69;5016645;28;46289;-80
2021/11/28 04:29:07;;;;;;;;;0.00;0.00;;;;;5.32;85.16;99194.41;5018335;28;45667;-83
2021/11/28 04:35:08;;;;;;;;;0.00;0.00;;;;;5.15;85.37;99153.25;5000979;28;45662;-81
2021/11/28 04:37:34;;;;;;;;;0.00;0.00;;;;;5.32;85.71;99191.81;4994588;28;46249;-83
2021/11/28 04:40:00;;;;;;;;;0.50;0.00;;;;;5.16;85.53;99160.09;4995102;28;45691;-82
2021/11/28 04:42:28;;;;;;;;;0.75;0.50;;;;;5.23;85.37;99171.69;4995470;28;45910;-80
2021/11/28 04:44:53;;;;;;;;;0.00;0.00;;;;;5.26;85.35;99176.66;4995219;28;45605;-80
2021/11/28 04:47:19;;;;;;;;;0.75;0.75;;;;;5.25;85.25;99159.41;4977126;28;46237;-81
2021/11/28 04:49:46;;;;;;;;;0.00;0.00;;;;;5.27;85.67;99175.72;4995136;28;45611;-81
2021/11/28 04:52:12;;;;;;;;;0.50;0.00;;;;;5.25;85.66;99183.63;4994999;28;45553;-82
2021/11/28 04:54:37;;;;;;;;;0.50;0.00;;;;;5.24;86.77;99202.72;4995275;28;46310;-79
2021/11/28 04:57:03;;;;;;;;;0.00;0.00;;;;;5.25;88.05;99194.00;4995296;28;46283;-80
2021/11/28 04:59:29;;;;;;;;;0.00;0.00;;;;;5.26;88.63;99179.25;4994982;28;45576;-81
2021/11/28 05:05:17;;;;;;;;;0.00;0.00;;;;;5.28;89.66;99185.19;4994684;28;45847;-82
2021/11/28 05:07:43;;;;;;;;;1.00;0.00;;;;;5.29;89.86;99190.25;4994984;28;45727;-81
2021/11/28 05:10:10;;;;;;;;;0.00;0.00;;;;;4.99;89.32;99136.19;4995140;28;45578;-80
2021/11/28 05:12:35;;;;;;;;;0.00;0.00;;;;;5.15;88.52;99182.63;4995455;28;45930;-79
2021/11/28 05:15:01;;;;;;;;;0.00;0.00;;;;;5.10;88.25;99171.75;4994581;28;46468;-79
2021/11/28 05:20:49;;;;;;;;;0.00;0.00;;;;;5.31;86.98;99190.13;4994705;28;45875;-81
2021/11/28 05:23:15;;;;;;;;;0.50;0.00;;;;;5.34;86.88;99193.34;4977531;28;45895;-81
2021/11/28 05:25:40;;;;;;;;;0.00;0.00;;;;;5.37;87.01;99192.28;4995667;28;46358;-80
2021/11/28 05:28:08;;;;;;;;;1.00;0.00;;;;;5.16;86.23;99176.50;4995342;28;46039;-79
2021/11/28 05:30:35;;;;;;;;;1.50;0.25;;;;;5.34;86.33;99195.13;4998274;28;45458;-82
2021/11/28 05:33:00;;;;;;;;;0.00;0.00;;;;;5.35;85.93;99199.34;4998269;28;45625;-83
2021/11/28 05:35:26;;;;;;;;;0.00;0.00;;;;;5.34;86.18;99195.97;4990205;28;46970;-83
2021/11/28 05:37:51;;;;;;;;;0.25;0.00;;;;;5.05;85.55;99174.69;5015684;28;46012;-84
2021/11/28 05:40:17;;;;;;;;;0.00;0.00;;;;;5.29;86.59;99211.00;4999919;28;45736;-83
2021/11/28 05:42:47;;;;;;;;;0.00;0.00;;;;;5.26;87.55;99197.44;5030987;28;45497;-81
2021/11/28 05:45:12;;;;;;;;;0.00;0.00;;;;;5.34;87.89;99219.31;5036005;28;46199;-81
2021/11/28 05:51:00;;;;;;;;;1.00;0.00;;;;;5.22;88.77;99207.22;5034894;28;45570;-77
2021/11/28 05:53:26;;;;;;;;;0.00;0.00;;;;;5.16;92.42;99204.22;5028870;28;45632;-83
2021/11/28 05:55:52;;;;;;;;;1.00;0.25;;;;;5.21;93.13;99222.91;5013008;28;46763;-84
2021/11/28 05:58:18;;;;;;;;;0.75;0.00;;;;;5.18;91.27;99239.53;5015929;28;46229;-81
2021/11/28 06:00:44;;;;;;;;;1.75;0.00;;;;;5.00;90.58;99192.34;5018811;28;45610;-84
2021/11/28 06:03:09;;;;;;;;;0.00;0.00;;;;;5.10;90.57;99222.81;5016724;28;45563;-80
2021/11/28 06:05:41;;;;;;;;;1.00;1.00;;;;;5.05;90.44;99234.38;5016220;28;45659;-81
2021/11/28 06:08:07;;;;;;;;;1.00;1.00;;;;;5.06;94.39;99236.03;5015411;28;45481;-81
2021/11/28 06:10:32;;;;;;;;;0.00;0.00;;;;;4.98;94.76;99225.34;5018017;28;45493;-81
2021/11/28 06:12:57;;;;;;;;;0.00;0.00;;;;;4.93;95.86;99230.03;5016644;28;45524;-83
2021/11/28 06:15:23;;;;;;;;;1.00;0.00;;;;;4.85;96.89;99229.75;5018381;28;45587;-83
2021/11/28 06:21:10;;;;;;;;;0.50;0.00;;;;;4.93;96.74;99244.78;5019658;28;45623;-83
2021/11/28 06:23:35;;;;;;;;;1.00;1.00;;;;;4.85;97.44;99227.16;5015807;28;45518;-80
2021/11/28 06:26:01;;;;;;;;;0.75;0.00;;;;;4.90;97.61;99242.41;5015787;28;46103;-81
2021/11/28 06:28:27;;;;;;;;;0.00;0.00;;;;;4.92;97.60;99243.94;4999379;28;47268;-80
2021/11/28 06:30:52;;;;;;;;;0.75;0.75;;;;;4.92;97.70;99259.50;5017555;28;45508;-82
2021/11/28 06:33:18;;;;;;;;;1.50;1.00;;;;;4.76;97.46;99258.91;5017554;28;45619;-81
2021/11/28 06:35:44;;;;;;;;;0.00;0.00;;;;;4.91;97.20;99257.84;5017048;28;46787;-80
2021/11/28 06:38:09;;;;;;;;;0.00;0.00;;;;;4.92;97.61;99261.28;5016966;28;45441;-81
2021/11/28 06:40:35;;;;;;;;;0.50;0.50;;;;;4.93;97.67;99258.56;5017172;28;45560;-82
2021/11/28 06:43:01;;;;;;;;;1.25;0.75;;;;;4.85;97.42;99293.78;5017293;28;45560;-82
2021/11/28 06:45:26;;;;;;;;;0.00;0.00;;;;;4.94;97.42;99269.78;5017022;28;46976;-81
2021/11/28 06:51:13;;;;;;;;;0.00;0.00;;;;;4.92;96.94;99303.63;5016901;28;45512;-82
2021/11/28 06:53:39;;;;;;;;;1.00;0.00;;;;;4.96;97.27;99292.13;5016948;28;45464;-84
2021/11/28 06:56:05;;;;;;;;;0.25;0.00;;;;;5.04;97.19;99250.03;4998855;28;48449;-81
2021/11/28 06:58:32;;;;;;;;;1.00;1.00;;;;;5.06;97.38;99285.34;4998487;28;48417;-82
2021/11/28 07:00:59;;;;;;;;;1.75;0.00;;;;;5.08;97.20;99278.25;5016834;28;45739;-83
2021/11/28 07:03:24;;;;;;;;;0.50;0.00;;;;;5.13;96.66;99283.13;5016924;28;45601;-81
2021/11/28 07:05:50;;;;;;;;;0.75;0.00;;;;;5.15;96.46;99299.44;5017081;28;46424;-83
2021/11/28 07:08:16;;;;;;;;;1.00;1.00;;;;;4.98;96.80;99266.88;5016752;28;45717;-82
2021/11/28 07:10:41;;;;;;;;;2.00;2.00;;;;;5.03;96.56;99275.16;5016734;28;45743;-82
2021/11/28 07:13:08;;;;;;;;;0.00;0.00;;;;;5.13;96.53;99275.34;5017222;28;45726;-83
2021/11/28 07:15:34;;;;;;;;;0.00;0.00;;;;;5.25;96.29;99307.41;5016852;28;45681;-82
2021/11/28 07:21:21;;;;;;;;;0.75;0.00;;;;;5.26;94.18;99317.69;5011419;28;45826;-82
2021/11/28 07:23:47;;;;;;;;;0.00;0.00;;;;;5.18;94.71;99306.19;5016671;28;45513;-81
2021/11/28 07:26:13;;;;;;;;;0.00;0.00;;;;;5.10;94.31;99279.94;5015795;28;46565;-83
2021/11/28 07:28:39;;;;;;;;;0.75;0.50;;;;;5.36;94.57;99321.28;4994757;28;47903;-83
2021/11/28 07:31:06;;;;;;;;;1.00;1.00;;;;;5.28;93.38;99310.63;5016910;28;45532;-82
2021/11/28 07:37:06;;;;;;;;;0.00;0.00;;;;;5.39;93.39;99321.09;5015201;28;46022;-81
2021/11/28 07:39:32;;;;;;;;;0.00;0.00;;;;;5.32;93.14;99322.44;5016557;28;46116;-82
2021/11/28 07:41:57;;;;;;;;;0.00;0.00;;;;;5.37;90.12;99369.69;5016608;28;45570;-85
2021/11/28 07:44:23;;;;;;;;;0.00;0.00;;;;;5.33;90.32;99359.63;5016112;28;45630;-82
2021/11/28 07:46:49;;;;;;;;;0.00;0.00;;;;;5.44;91.51;99367.50;5015809;28;45571;-81
2021/11/28 07:49:14;;;;;;;;;0.00;0.00;;;;;5.09;91.09;99320.63;4997086;28;47135;-79
2021/11/28 07:51:40;;;;;;;;;0.00;0.00;;;;;5.03;92.65;99295.09;5015562;28;45799;-81
2021/11/28 07:54:06;;;;;;;;;1.00;0.00;;;;;5.33;92.05;99375.22;5015954;28;45862;-81
2021/11/28 07:56:32;;;;;;;;;0.00;0.00;;;;;5.33;90.94;99347.50;5015368;28;45494;-80
2021/11/28 07:58:57;;;;;;;;;0.50;0.50;;;;;5.45;92.02;99356.19;5015110;28;46161;-83
2021/11/28 08:01:23;;;;;;;;;1.00;0.25;;;;;5.46;91.70;99360.44;5014924;28;45484;-82
2021/11/28 08:07:10;;;;;;;;;0.75;0.00;;;;;5.23;90.29;99346.47;5015019;28;46127;-83
2021/11/28 08:09:36;;;;;;;;;1.00;1.00;;;;;5.46;90.96;99374.25;5015002;28;45505;-81
2021/11/28 08:12:03;;;;;;;;;1.00;0.00;;;;;5.54;90.15;99397.09;5014299;28;45587;-78
2021/11/28 08:14:28;;;;;;;;;1.00;0.00;;;;;5.56;89.34;99389.22;4993069;28;45797;-77
2021/11/28 08:16:54;;;;;;;;;1.00;0.00;;;;;5.62;88.49;99391.34;5013332;28;46342;-77
2021/11/28 08:19:19;;;;;;;;;0.25;0.25;;;;;5.51;90.08;99366.13;5014026;28;46076;-77
2021/11/28 08:21:45;;;;;;;;;0.00;0.00;;;;;5.66;89.12;99396.25;5014017;28;45627;-78
2021/11/28 08:24:10;;;;;;;;;1.00;0.00;;;;;5.68;87.88;99385.72;5014240;28;45634;-77
2021/11/28 08:26:36;;;;;;;;;1.00;0.00;;;;;5.67;88.41;99410.88;5013870;28;45949;-78
2021/11/28 08:29:05;;;;;;;;;2.00;0.50;;;;;5.74;88.62;99400.88;5014382;28;46221;-79
2021/11/28 08:31:32;;;;;;;;;1.00;0.75;;;;;5.73;87.47;99396.63;5014420;28;45740;-78
2021/11/28 08:37:19;;;;;;;;;1.75;0.00;;;;;5.83;86.06;99415.84;5002575;28;45568;-79
2021/11/28 08:39:46;;;;;;;;;2.00;1.00;;;;;5.84;86.04;99399.28;4994532;28;46343;-78
2021/11/28 08:42:11;;;;;;;;;1.00;1.00;;;;;5.86;87.50;99406.06;4994503;28;45860;-78
2021/11/28 08:44:38;;;;;;;;;1.50;1.00;;;;;5.82;85.62;99378.63;4994530;28;45443;-79
2021/11/28 08:47:03;;;;;;;;;1.25;1.00;;;;;5.93;86.50;99434.25;4994219;28;46774;-81
2021/11/28 08:49:29;;;;;;;;;0.00;0.00;;;;;5.84;86.00;99389.72;4993576;28;46170;-80
2021/11/28 08:51:54;;;;;;;;;0.25;0.00;;;;;5.94;85.30;99413.31;4994200;28;46069;-82
2021/11/28 08:54:20;;;;;;;;;1.00;1.00;;;;;5.86;84.71;99395.66;4994198;28;45787;-79
2021/11/28 08:56:50;;;;;;;;;0.00;0.00;;;;;5.98;83.49;99434.75;4994466;28;45639;-82
2021/11/28 08:59:16;;;;;;;;;1.25;1.25;;;;;6.01;84.59;99418.91;4994334;28;46064;-80
2021/11/28 09:01:41;;;;;;;;;0.25;0.00;;;;;5.96;83.69;99419.25;4993994;28;45834;-79
2021/11/28 09:07:28;;;;;;;;;0.00;0.00;;;;;6.04;81.74;99442.13;4995165;28;45615;-78
2021/11/28 09:09:55;;;;;;;;;1.50;1.00;;;;;6.03;83.41;99443.03;4995791;28;46186;-79
2021/11/28 09:12:21;;;;;;;;;0.75;0.75;;;;;6.04;83.57;99444.72;4995311;28;45836;-78
2021/11/28 09:14:46;;;;;;;;;0.00;0.00;;;;;6.06;83.10;99451.44;4994831;28;45908;-77
2021/11/28 09:17:12;;;;;;;;;1.00;1.00;;;;;6.07;83.42;99447.09;4993352;28;46445;-79
2021/11/28 09:25:27;;;;;;;;;1.00;1.00;;;;;5.95;83.19;99455.75;4993896;28;45660;-80
2021/11/28 09:27:55;;;;;;;;;0.00;0.00;;;;;5.87;82.59;99449.34;4992869;28;47606;-80
2021/11/28 09:30:23;;;;;;;;;2.75;0.50;;;;;5.93;82.43;99458.47;4994270;28;46450;-81
2021/11/28 09:32:50;;;;;;;;;1.00;1.00;;;;;5.82;81.71;99451.41;4993792;28;45588;-76
2021/11/28 09:35:16;;;;;;;;;1.75;1.00;;;;;5.90;82.54;99459.50;4976145;28;45851;-76
2021/11/28 09:37:41;;;;;;;;;1.75;1.00;;;;;5.95;82.61;99458.34;4994942;28;46323;-78
2021/11/28 09:40:08;;;;;;;;;1.00;1.00;;;;;5.97;82.05;99459.91;4993709;28;45557;-77
2021/11/28 09:42:38;;;;;;;;;2.00;1.00;;;;;5.94;81.07;99482.69;4993846;28;45934;-78
2021/11/28 09:45:05;;;;;;;;;1.00;1.00;;;;;5.74;80.86;99432.91;4994146;28;45533;-78
2021/11/28 09:47:33;;;;;;;;;1.00;1.00;;;;;5.98;80.96;99450.34;4993586;28;46451;-79
2021/11/28 09:53:20;;;;;;;;;1.25;1.00;;;;;5.95;80.39;99455.75;4993289;28;45823;-78
2021/11/28 09:55:47;;;;;;;;;1.00;1.00;;;;;6.04;80.45;99487.13;4993496;28;45673;-81
2021/11/28 09:58:14;;;;;;;;;3.50;1.00;;;;;6.05;80.64;99506.97;4993277;28;45867;-79
2021/11/28 10:00:40;;;;;;;;;1.75;1.00;;;;;5.95;79.45;99479.97;4993805;28;46009;-81
2021/11/28 10:03:07;;;;;;;;;4.00;2.00;;;;;6.04;80.07;99497.53;4995387;28;45727;-80
2021/11/28 10:05:32;;;;;;;;;1.00;1.00;;;;;5.94;78.94;99469.69;4997234;28;45593;-80
2021/11/28 10:07:58;;;;;;;;;3.00;1.00;;;;;5.82;79.43;99467.00;4979070;28;45733;-80
2021/11/28 10:10:24;;;;;;;;;1.75;1.00;;;;;5.90;79.88;99485.50;4996982;28;45680;-81
2021/11/28 10:12:51;;;;;;;;;2.25;0.00;;;;;5.93;78.55;99496.63;4979172;28;45592;-80
2021/11/28 10:15:23;;;;;;;;;0.75;0.50;;;;;5.97;79.79;99506.69;4996939;28;45545;-76
2021/11/28 10:17:48;;;;;;;;;2.00;2.00;;;;;5.93;78.76;99505.25;4994885;28;46925;-78
2021/11/28 10:24:09;;;;;;;;;5.00;2.00;;;;;5.83;77.54;99532.78;4996136;28;45904;-77
2021/11/28 10:26:38;;;;;;;;;1.50;1.50;;;;;5.82;78.37;99531.13;4996819;28;45643;-80
2021/11/28 10:29:16;;;;;;;;;4.00;1.00;;;;;5.75;78.10;99490.91;4996187;28;47551;-81
2021/11/28 10:31:48;;;;;;;;;0.75;0.00;;;;;5.77;78.24;99502.84;4996327;28;46177;-80
2021/11/28 10:34:17;;;;;;;;;1.75;1.00;;;;;5.76;77.68;99495.16;4996203;28;45502;-78
2021/11/28 10:36:43;;;;;;;;;2.00;1.25;;;;;5.74;79.15;99494.44;4996345;28;45886;-75
2021/11/28 10:39:26;;;;;;;;;4.50;2.00;;;;;5.79;78.47;99507.94;4996185;28;45714;-79
2021/11/28 10:41:54;;;;;;;;;1.00;1.00;;;;;5.73;77.92;99531.72;4997878;28;45981;-80
2021/11/28 10:44:25;;;;;;;;;1.25;1.00;;;;;5.76;79.09;99505.56;4998622;28;45928;-81
2021/11/28 10:46:56;;;;;;;;;2.00;1.00;;;;;5.73;78.12;99526.53;4998460;28;45660;-79
2021/11/28 10:49:24;;;;;;;;;3.50;2.00;;;;;5.55;77.49;99468.91;4997553;28;46345;-81
2021/11/28 10:52:05;;;;;;;;;0.00;0.00;;;;;5.64;76.46;99496.84;4996930;28;45635;-82
2021/11/28 10:54:34;;;;;;;;;1.50;1.00;;;;;5.55;77.53;99476.69;4996905;28;45610;-76
2021/11/28 10:57:06;;;;;;;;;2.50;2.00;;;;;5.59;99.59;99511.91;4997388;28;45478;-77
2021/11/28 10:59:32;;;;;;;;;3.50;2.00;;;;;5.61;100.00;99502.25;4996489;28;46772;-81
2021/11/28 11:01:58;;;;;;;;;2.00;1.00;;;;;5.66;100.00;99501.94;4996279;28;46428;-77
2021/11/28 11:04:23;;;;;;;;;1.00;1.00;;;;;5.71;100.00;99489.44;4995880;28;45649;-83
2021/11/28 11:07:09;;;;;;;;;5.25;2.00;;;;;5.68;100.00;99459.31;4995803;28;45715;-85
2021/11/28 11:09:42;;;;;;;;;1.00;1.00;;;;;5.74;100.00;99479.66;4996037;28;46499;-81
2021/11/28 11:12:18;;;;;;;;;1.00;1.00;;;;;5.90;84.04;99476.88;4978105;28;47570;-80
2021/11/28 11:14:44;;;;;;;;;2.50;1.75;;;;;5.95;82.91;99510.31;4996022;28;45681;-81
2021/11/28 11:17:13;;;;;;;;;1.75;1.00;;;;;5.81;80.49;99467.91;4994977;28;45543;-81
2021/11/28 11:19:46;;;;;;;;;1.50;1.00;;;;;5.97;81.02;99479.88;4996092;28;45564;-82
2021/11/28 11:22:24;;;;;;;;;2.00;1.75;;;;;6.00;80.01;99501.28;4995775;28;46169;-75
2021/11/28 11:24:58;;;;;;;;;3.50;0.50;;;;;6.04;80.16;99489.75;4977854;28;45634;-77
2021/11/28 11:27:33;;;;;;;;;2.00;1.75;;;;;6.09;79.56;99500.66;4995747;28;45524;-78
2021/11/28 11:30:01;;;;;;;;;2.00;1.50;;;;;6.02;79.00;99473.41;4994322;28;46466;-77
2021/11/28 11:33:01;;;;;;;;;1.00;1.00;;;;;6.22;77.32;99496.22;4995771;28;46430;-78
2021/11/28 11:35:29;;;;;;;;;1.00;1.00;;;;;6.22;76.74;99491.03;4915752;28;45864;-75
2021/11/28 11:37:59;;;;;;;;;1.75;0.00;;;;;6.30;77.25;99509.53;4928870;28;45738;-80
2021/11/28 11:40:25;;;;;;;;;1.25;0.25;;;;;6.34;75.64;99497.13;4935623;28;46520;-83
2021/11/28 11:42:52;;;;;;;;;3.00;2.00;;;;;6.33;76.37;99500.66;4935703;28;45680;-80
2021/11/28 11:45:21;;;;;;;;;4.00;2.00;;;;;6.35;73.10;99506.59;4935329;28;45845;-82
2021/11/28 11:47:47;;;;;;;;;1.00;1.00;;;;;6.31;75.09;99486.94;4935598;28;45595;-79
2021/11/28 11:50:16;;;;;;;;;2.00;1.00;;;;;6.20;73.83;99485.13;4935692;28;46196;-77
2021/11/28 11:52:41;;;;;;;;;2.00;1.00;;;;;6.20;73.51;99476.47;4935456;28;47197;-78
2021/11/28 11:55:14;;;;;;;;;2.00;1.25;;;;;6.26;73.09;99499.44;4936001;28;45693;-81
2021/11/28 11:58:12;;;;;;;;;1.25;1.25;;;;;6.23;73.11;99495.28;4935936;28;45796;-82
2021/11/28 12:00:58;;;;;;;;;4.00;2.00;;;;;6.29;71.88;99510.47;4935370;28;45708;-77
2021/11/28 12:03:24;;;;;;;;;1.75;1.00;;;;;6.32;72.14;99501.59;4935177;28;47207;-78
2021/11/28 12:05:59;;;;;;;;;4.00;4.00;;;;;6.28;72.83;99498.38;4935601;28;45753;-85
2021/11/28 12:08:31;;;;;;;;;2.00;1.25;;;;;6.46;71.56;99524.88;4935099;28;45825;-85
2021/11/28 12:11:04;;;;;;;;;1.00;1.00;;;;;6.49;72.75;99497.78;4955314;28;47389;-80
2021/11/28 12:13:30;;;;;;;;;1.25;1.00;;;;;6.51;71.39;99494.16;5015147;28;46051;-83
2021/11/28 12:16:14;;;;;;;;;2.00;2.00;;;;;6.53;72.34;99487.03;5015604;28;45675;-84
2021/11/28 12:18:44;;;;;;;;;0.00;0.00;;;;;6.52;71.47;99492.38;4999821;28;45525;-85
2021/11/28 12:21:20;;;;;;;;;1.00;1.00;;;;;6.51;69.71;99569.59;5018152;28;46307;-80
2021/11/28 12:24:03;;;;;;;;;0.00;0.00;;;;;6.48;68.68;99499.56;5019008;28;46941;-82
2021/11/28 12:26:30;;;;;;;;;3.50;1.00;;;;;6.46;69.73;99513.63;5018402;28;45770;-80
2021/11/28 12:29:13;;;;;;;;;0.75;0.75;;;;;6.49;70.33;99524.63;5015291;28;45669;-89
2021/11/28 12:31:47;;;;;;;;;1.00;1.00;;;;;6.44;70.38;99498.13;5014703;28;45633;-83
2021/11/28 12:37:40;;;;;;;;;1.00;1.00;;;;;6.50;68.28;99508.09;5017169;28;45821;-84
2021/11/28 12:40:23;;;;;;;;;1.50;0.75;;;;;6.44;69.42;99511.13;5015512;28;45879;-75
2021/11/28 12:42:49;;;;;;;;;2.00;1.50;;;;;6.42;68.80;99528.63;5016496;28;46511;-84
2021/11/28 12:45:44;;;;;;;;;2.00;0.50;;;;;6.50;68.35;99526.31;5015111;28;45692;-83
2021/11/28 12:48:17;;;;;;;;;0.00;0.00;;;;;6.48;67.64;99507.34;5014562;28;45606;-79
2021/11/28 12:54:06;;;;;;;;;1.75;1.75;;;;;6.46;69.13;99487.63;5015038;28;45519;-83
2021/11/28 12:56:31;;;;;;;;;3.00;1.00;;;;;6.54;68.63;99490.47;5014347;28;46437;-82
2021/11/28 12:59:12;;;;;;;;;1.25;1.00;;;;;6.56;68.90;99496.41;5013594;28;45625;-80
2021/11/28 13:01:56;;;;;;;;;6.00;4.00;;;;;6.53;67.80;99502.66;5014039;28;45651;-76
2021/11/28 13:04:39;;;;;;;;;2.50;1.00;;;;;6.51;67.50;99495.91;5013622;28;46484;-79
2021/11/28 13:07:23;;;;;;;;;4.00;2.00;;;;;6.49;68.58;99519.44;5013381;28;46466;-79
2021/11/28 13:09:49;;;;;;;;;1.50;1.00;;;;;6.47;68.67;99505.72;5014298;28;45847;-74
2021/11/28 13:12:16;;;;;;;;;4.00;1.50;;;;;6.47;67.12;99512.69;5013961;28;45644;-79